createdAt,value
2019-03-06T00:02:17.391Z,4.70
2019-03-06T00:04:47.760Z,4.60
2019-03-06T00:07:18.091Z,4.50
2019-03-06T00:09:48.322Z,4.50
2019-03-06T00:12:18.715Z,4.50
2019-03-06T00:14:49.045Z,4.50
2019-03-06T00:17:19.478Z,4.50
2019-03-06T00:19:49.993Z,4.50
2019-03-06T00:22:20.359Z,4.50
2019-03-06T00:24:58.923Z,4.50
2019-03-06T00:27:41.694Z,4.50
2019-03-06T00:30:12.270Z,4.50
2019-03-06T00:32:43.003Z,4.50
2019-03-06T00:35:18.608Z,4.40
2019-03-06T00:37:49.076Z,4.40
2019-03-06T00:40:44.278Z,4.30
2019-03-06T00:43:14.626Z,4.30
2019-03-06T00:45:45.121Z,4.30
2019-03-06T00:48:15.412Z,4.30
2019-03-06T00:50:45.981Z,4.30
2019-03-06T00:53:16.196Z,4.30
2019-03-06T00:55:46.650Z,4.30
2019-03-06T00:58:16.998Z,4.30
2019-03-06T01:00:47.368Z,4.30
2019-03-06T01:03:17.767Z,4.40
2019-03-06T01:05:48.379Z,4.40
2019-03-06T01:08:18.850Z,4.40
2019-03-06T01:10:49.542Z,4.40
2019-03-06T01:13:20.267Z,4.40
2019-03-06T01:15:51.049Z,4.40
2019-03-06T01:18:21.389Z,4.40
2019-03-06T01:20:51.659Z,4.40
2019-03-06T01:23:22.007Z,4.40
2019-03-06T01:25:52.391Z,4.40
2019-03-06T01:28:22.705Z,4.30
2019-03-06T01:30:53.074Z,4.20
2019-03-06T01:33:32.109Z,4.20
2019-03-06T01:36:11.355Z,4.20
2019-03-06T01:39:00.515Z,4.20
2019-03-06T01:41:49.142Z,4.10
2019-03-06T01:44:23.504Z,4.10
2019-03-06T01:46:53.781Z,4.10
2019-03-06T01:49:24.323Z,4.10
2019-03-06T01:51:54.659Z,4.20
2019-03-06T01:54:24.941Z,4.20
2019-03-06T01:56:55.293Z,4.20
2019-03-06T01:59:25.543Z,4.20
2019-03-06T02:01:55.903Z,4.10
2019-03-06T02:04:26.234Z,4.10
2019-03-06T02:06:56.566Z,4.10
2019-03-06T02:09:29.695Z,4.10
2019-03-06T02:12:00.309Z,4.10
2019-03-06T02:14:30.599Z,4.10
2019-03-06T02:17:01.197Z,4.00
2019-03-06T02:19:31.561Z,4.00
2019-03-06T02:22:01.989Z,3.90
2019-03-06T02:24:32.494Z,3.90
2019-03-06T02:27:02.878Z,3.80
2019-03-06T02:29:33.107Z,3.80
2019-03-06T02:32:03.494Z,3.80
2019-03-06T02:34:34.018Z,3.80
2019-03-06T02:37:04.345Z,3.80
2019-03-06T02:39:34.750Z,3.80
2019-03-06T02:42:05.060Z,3.80
2019-03-06T02:44:35.280Z,3.80
2019-03-06T02:47:05.732Z,3.70
2019-03-06T02:49:36.009Z,3.70
2019-03-06T02:52:25.352Z,3.70
2019-03-06T02:54:55.785Z,3.70
2019-03-06T02:57:26.021Z,3.60
2019-03-06T03:00:01.367Z,3.60
2019-03-06T03:02:53.528Z,3.50
2019-03-06T03:05:42.832Z,3.50
2019-03-06T03:08:13.225Z,3.50
2019-03-06T03:10:43.516Z,3.50
2019-03-06T03:13:13.832Z,3.50
2019-03-06T03:15:44.121Z,3.50
2019-03-06T03:18:14.520Z,3.50
2019-03-06T03:20:44.923Z,3.50
2019-03-06T03:23:15.383Z,3.50
2019-03-06T03:25:45.751Z,3.60
2019-03-06T03:28:16.079Z,3.60
2019-03-06T03:30:46.326Z,3.60
2019-03-06T03:33:16.660Z,3.60
2019-03-06T03:35:47.073Z,3.60
2019-03-06T03:38:17.429Z,3.60
2019-03-06T03:40:47.733Z,3.60
2019-03-06T03:43:17.981Z,3.60
2019-03-06T03:45:48.301Z,3.60
2019-03-06T03:48:18.716Z,3.60
2019-03-06T03:50:48.951Z,3.60
2019-03-06T03:53:19.385Z,3.60
2019-03-06T03:55:49.632Z,3.50
2019-03-06T03:58:20.088Z,3.50
2019-03-06T04:00:50.559Z,3.50
2019-03-06T04:03:20.996Z,3.40
2019-03-06T04:05:51.338Z,3.40
2019-03-06T04:08:21.811Z,3.50
2019-03-06T04:10:52.374Z,3.50
2019-03-06T04:13:22.743Z,3.50
2019-03-06T04:15:53.086Z,3.60
2019-03-06T04:18:23.350Z,3.50
2019-03-06T04:20:53.772Z,3.40
2019-03-06T04:23:24.028Z,3.40
2019-03-06T04:25:54.481Z,3.40
2019-03-06T04:28:24.792Z,3.40
2019-03-06T04:30:55.033Z,3.30
2019-03-06T04:33:25.175Z,3.30
2019-03-06T04:35:55.484Z,3.30
2019-03-06T04:38:25.656Z,3.30
2019-03-06T04:40:55.908Z,3.20
2019-03-06T04:43:26.231Z,3.20
2019-03-06T04:45:56.866Z,3.10
2019-03-06T04:48:26.994Z,3.10
2019-03-06T04:50:57.305Z,3.00
2019-03-06T04:53:27.608Z,3.00
2019-03-06T04:55:57.947Z,3.00
2019-03-06T04:58:28.086Z,2.90
2019-03-06T05:00:58.415Z,2.90
2019-03-06T05:03:28.602Z,2.90
2019-03-06T05:05:58.892Z,2.90
2019-03-06T05:08:29.055Z,2.90
2019-03-06T05:10:59.361Z,3.00
2019-03-06T05:13:29.547Z,2.90
2019-03-06T05:15:59.929Z,2.90
2019-03-06T05:18:34.602Z,2.90
2019-03-06T05:21:04.984Z,2.90
2019-03-06T05:23:35.221Z,2.90
2019-03-06T05:26:05.544Z,3.00
2019-03-06T05:28:35.763Z,3.00
2019-03-06T05:31:06.078Z,3.10
2019-03-06T05:33:36.499Z,3.10
2019-03-06T05:37:12.272Z,3.10
2019-03-06T05:39:42.467Z,3.10
2019-03-06T05:42:13.787Z,3.00
2019-03-06T05:44:43.987Z,3.00
2019-03-06T05:47:14.306Z,3.00
2019-03-06T05:49:44.707Z,3.00
2019-03-06T05:52:15.198Z,3.00
2019-03-06T05:54:45.431Z,3.10
2019-03-06T05:57:15.766Z,3.10
2019-03-06T05:59:46.024Z,3.20
2019-03-06T06:02:16.294Z,3.20
2019-03-06T06:04:46.688Z,3.20
2019-03-06T06:07:16.886Z,3.30
2019-03-06T06:09:47.212Z,3.40
2019-03-06T06:12:17.467Z,3.40
2019-03-06T06:14:47.793Z,3.30
2019-03-06T06:17:18.150Z,3.30
2019-03-06T06:19:48.344Z,3.20
2019-03-06T06:22:32.430Z,3.20
2019-03-06T06:25:02.815Z,3.10
2019-03-06T06:27:33.241Z,3.10
2019-03-06T06:30:03.670Z,3.10
2019-03-06T06:32:34.051Z,3.10
2019-03-06T06:35:04.698Z,3.10
2019-03-06T06:37:35.046Z,3.10
2019-03-06T06:40:05.736Z,3.20
2019-03-06T06:42:36.140Z,3.20
2019-03-06T06:45:07.448Z,3.20
2019-03-06T06:47:39.280Z,3.30
2019-03-06T06:50:10.161Z,3.30
2019-03-06T06:53:34.504Z,3.40
2019-03-06T06:56:53.923Z,3.40
2019-03-06T07:00:13.373Z,3.50
2019-03-06T07:03:59.767Z,3.60
2019-03-06T07:06:48.289Z,3.70
2019-03-06T07:09:42.604Z,3.90
2019-03-06T07:12:43.831Z,4.10
2019-03-06T07:15:48.509Z,4.30
2019-03-06T07:18:33.071Z,4.50
2019-03-06T07:21:09.069Z,4.70
2019-03-06T07:24:01.216Z,4.90
2019-03-06T07:27:02.673Z,5.00
2019-03-06T07:29:42.916Z,5.20
2019-03-06T07:32:50.863Z,5.40
2019-03-06T07:36:21.396Z,5.50
2019-03-06T07:38:57.051Z,5.70
2019-03-06T07:41:50.439Z,5.90
2019-03-06T07:44:38.292Z,6.00
2019-03-06T07:47:30.717Z,6.10
2019-03-06T07:50:26.025Z,6.30
2019-03-06T07:53:55.610Z,6.50
2019-03-06T07:56:44.851Z,6.70
2019-03-06T07:59:16.077Z,6.90
2019-03-06T08:02:15.140Z,6.90
2019-03-06T08:04:53.674Z,7.00
2019-03-06T08:07:24.035Z,7.10
2019-03-06T08:09:54.448Z,7.30
2019-03-06T08:12:39.709Z,7.50
2019-03-06T08:15:24.762Z,7.60
2019-03-06T08:18:07.211Z,7.80
2019-03-06T08:20:50.479Z,8.00
2019-03-06T08:23:39.415Z,8.20
2019-03-06T08:26:09.814Z,8.20
2019-03-06T08:28:40.133Z,8.30
2019-03-06T08:31:38.860Z,8.40
2019-03-06T08:34:09.339Z,8.50
2019-03-06T08:36:39.738Z,8.50
2019-03-06T08:39:20.558Z,8.60
2019-03-06T08:41:51.041Z,8.70
2019-03-06T08:44:21.471Z,8.80
2019-03-06T08:47:09.369Z,8.80
2019-03-06T08:49:52.503Z,8.80
2019-03-06T08:52:40.452Z,8.80
2019-03-06T08:55:28.988Z,9.00
2019-03-06T08:58:18.422Z,9.10
2019-03-06T09:01:07.079Z,9.10
2019-03-06T09:03:47.814Z,9.20
2019-03-06T09:06:43.110Z,9.40
2019-03-06T09:09:31.511Z,9.40
2019-03-06T09:12:18.350Z,9.50
2019-03-06T09:15:07.787Z,9.60
2019-03-06T09:17:55.520Z,9.70
2019-03-06T09:20:50.803Z,9.80
2019-03-06T09:23:45.860Z,9.80
2019-03-06T09:26:47.231Z,9.90
2019-03-06T09:29:45.189Z,10.00
2019-03-06T09:32:34.341Z,10.10
2019-03-06T09:35:38.981Z,10.20
2019-03-06T09:38:37.290Z,10.30
2019-03-06T09:41:29.539Z,10.50
2019-03-06T09:44:17.558Z,10.50
2019-03-06T09:47:14.001Z,10.70
2019-03-06T09:50:12.324Z,10.80
2019-03-06T09:53:04.234Z,10.90
2019-03-06T09:55:53.574Z,11.00
2019-03-06T09:58:30.399Z,11.10
2019-03-06T10:01:22.581Z,11.20
2019-03-06T10:04:01.075Z,11.10
2019-03-06T10:06:52.023Z,11.10
2019-03-06T10:09:36.910Z,11.20
2019-03-06T10:12:22.550Z,11.30
2019-03-06T10:15:16.610Z,11.60
2019-03-06T10:18:00.230Z,11.70
2019-03-06T10:20:30.947Z,11.60
2019-03-06T10:23:01.361Z,11.50
2019-03-06T10:25:32.082Z,11.50
2019-03-06T10:28:06.370Z,11.60
2019-03-06T10:30:35.246Z,11.60
2019-03-06T10:33:05.642Z,11.70
2019-03-06T10:35:37.278Z,11.90
2019-03-06T19:18:45.495Z,12.50
2019-03-06T19:21:16.120Z,12.40
2019-03-06T19:23:48.232Z,12.40
2019-03-06T19:26:18.836Z,12.30
2019-03-06T19:28:49.449Z,12.30
2019-03-06T19:31:20.000Z,12.30
2019-03-06T19:33:50.554Z,12.30
2019-03-06T19:36:23.756Z,12.30
2019-03-06T19:38:54.074Z,12.30
2019-03-06T19:41:24.553Z,12.20
2019-03-06T19:43:58.857Z,12.20
2019-03-06T19:46:29.466Z,12.20
2019-03-06T19:49:00.015Z,12.20
2019-03-06T19:51:30.823Z,12.20
2019-03-06T19:54:01.572Z,12.10
2019-03-06T19:56:32.414Z,12.10
2019-03-06T19:59:02.880Z,12.00
2019-03-06T20:01:33.524Z,12.00
2019-03-06T20:04:04.155Z,12.00
2019-03-06T20:06:34.613Z,12.00
2019-03-06T20:09:21.701Z,12.00
2019-03-06T20:11:52.142Z,12.00
2019-03-06T20:14:22.553Z,12.00
2019-03-06T20:16:53.036Z,12.10
2019-03-06T20:19:24.100Z,12.20
2019-03-06T20:21:54.884Z,12.20
2019-03-06T20:24:25.400Z,12.20
2019-03-06T20:26:56.117Z,12.20
2019-03-06T20:29:26.891Z,12.20
2019-03-06T20:31:57.343Z,12.20
2019-03-06T20:34:27.750Z,12.10
2019-03-06T20:36:58.232Z,12.10
2019-03-06T20:39:28.713Z,12.10
2019-03-06T20:41:59.146Z,12.00
2019-03-06T20:44:29.710Z,12.00
2019-03-06T20:47:00.147Z,12.00
2019-03-06T20:49:30.700Z,12.00
2019-03-06T20:52:01.114Z,12.00
2019-03-06T20:54:31.600Z,12.00
2019-03-06T20:57:02.111Z,12.00
2019-03-06T20:59:32.423Z,12.00
2019-03-06T21:03:37.407Z,11.90
2019-03-06T21:06:07.768Z,11.90
2019-03-06T21:08:38.244Z,11.90
2019-03-06T21:11:08.674Z,11.80
2019-03-06T21:13:39.140Z,11.80
2019-03-06T21:16:09.645Z,11.80
2019-03-06T21:18:40.221Z,11.80
2019-03-06T21:21:10.658Z,11.80
2019-03-06T21:23:41.234Z,11.70
2019-03-06T21:26:13.746Z,11.70
2019-03-06T21:28:44.299Z,11.70
2019-03-06T21:31:14.741Z,11.70
2019-03-06T21:33:45.342Z,11.60
2019-03-06T21:36:15.684Z,11.60
2019-03-06T21:38:46.007Z,11.60
2019-03-06T21:41:16.376Z,11.60
2019-03-06T21:43:46.672Z,11.60
2019-03-06T21:46:17.298Z,11.60
2019-03-06T21:48:47.756Z,11.60
2019-03-06T21:51:18.154Z,11.60
2019-03-06T21:53:48.726Z,11.60
2019-03-06T21:56:19.086Z,11.50
2019-03-06T21:58:49.594Z,11.50
2019-03-06T22:01:19.896Z,11.50
2019-03-06T22:03:50.400Z,11.50
2019-03-06T22:06:20.833Z,11.50
2019-03-06T22:08:51.315Z,11.40
2019-03-06T22:11:21.733Z,11.40
2019-03-06T22:13:52.468Z,11.30
2019-03-06T22:16:22.928Z,11.20
2019-03-06T22:18:53.368Z,11.20
2019-03-06T22:21:23.706Z,11.10
2019-03-06T22:23:54.102Z,11.00
2019-03-06T22:26:24.725Z,10.90
2019-03-06T22:28:55.082Z,10.90
2019-03-06T22:31:25.378Z,10.90
2019-03-06T22:33:55.814Z,10.80
2019-03-06T22:36:26.251Z,10.80
2019-03-06T22:38:56.588Z,10.70
2019-03-06T22:41:27.499Z,10.60
2019-03-06T22:43:57.950Z,10.50
2019-03-06T22:46:28.335Z,10.30
2019-03-06T22:48:58.667Z,10.20
2019-03-06T22:51:29.184Z,10.10
2019-03-06T22:53:59.738Z,10.00
2019-03-06T22:56:30.387Z,9.90
2019-03-06T22:59:00.707Z,9.80
2019-03-06T23:01:35.296Z,9.70
2019-03-06T23:04:06.337Z,9.60
2019-03-06T23:06:37.027Z,9.60
2019-03-06T23:09:11.056Z,9.50
2019-03-06T23:11:42.893Z,9.40
2019-03-06T23:14:13.192Z,9.40
2019-03-06T23:16:43.619Z,9.30
2019-03-06T23:19:14.000Z,9.20
2019-03-06T23:21:44.380Z,9.20
2019-03-06T23:24:14.797Z,9.30
2019-03-06T23:26:45.153Z,9.30
2019-03-06T23:29:15.466Z,9.40
2019-03-06T23:31:45.875Z,9.30
2019-03-06T23:34:16.141Z,9.30
2019-03-06T23:36:46.552Z,9.30
2019-03-06T23:39:16.960Z,9.30
2019-03-06T23:41:47.329Z,9.20
2019-03-06T23:44:17.730Z,9.20
2019-03-06T23:46:48.058Z,9.10
2019-03-06T23:49:18.319Z,9.00
2019-03-06T23:52:13.307Z,9.00
2019-03-06T23:54:43.727Z,8.90
2019-03-06T23:57:14.174Z,8.70
2019-03-06T23:59:44.600Z,8.60
